sensor_id;sensor_type;location;lat;lon;timestamp;pressure;altitude;pressure_sealevel;temperature;humidity
37291;BME280;23175;-33.706;151.094;2022-08-19T00:00:28;99484.13;;;15.14;44.87
37291;BME280;23175;-33.706;151.094;2022-08-19T00:02:58;99489.44;;;15.19;44.63
37291;BME280;23175;-33.706;151.094;2022-08-19T00:05:28;99488.50;;;15.03;45.12
37291;BME280;23175;-33.706;151.094;2022-08-19T00:07:59;99490.27;;;15.98;44.12
37291;BME280;23175;-33.706;151.094;2022-08-19T00:10:29;99493.08;;;16.01;44.61
37291;BME280;23175;-33.706;151.094;2022-08-19T00:12:59;99486.30;;;15.62;46.21
37291;BME280;23175;-33.706;151.094;2022-08-19T00:15:29;99484.73;;;14.27;48.52
37291;BME280;23175;-33.706;151.094;2022-08-19T00:18:00;99482.72;;;15.51;45.10
37291;BME280;23175;-33.706;151.094;2022-08-19T00:20:30;99480.51;;;13.45;49.62
37291;BME280;23175;-33.706;151.094;2022-08-19T00:23:00;99476.68;;;15.26;45.88
37291;BME280;23175;-33.706;151.094;2022-08-19T00:25:30;99474.86;;;14.23;47.01
37291;BME280;23175;-33.706;151.094;2022-08-19T00:28:01;99469.74;;;15.52;44.39
37291;BME280;23175;-33.706;151.094;2022-08-19T00:30:31;99469.10;;;13.98;43.47
37291;BME280;23175;-33.706;151.094;2022-08-19T00:33:01;99472.83;;;13.36;44.83
37291;BME280;23175;-33.706;151.094;2022-08-19T00:35:32;99471.78;;;14.96;42.64
37291;BME280;23175;-33.706;151.094;2022-08-19T00:38:02;99474.70;;;10.81;49.75
37291;BME280;23175;-33.706;151.094;2022-08-19T00:40:32;99469.51;;;13.95;44.04
37291;BME280;23175;-33.706;151.094;2022-08-19T00:43:10;99470.59;;;15.04;43.38
37291;BME280;23175;-33.706;151.094;2022-08-19T00:45:41;99465.45;;;15.09;42.69
37291;BME280;23175;-33.706;151.094;2022-08-19T00:48:12;99463.51;;;14.79;42.59
37291;BME280;23175;-33.706;151.094;2022-08-19T00:50:43;99464.09;;;13.78;42.70
37291;BME280;23175;-33.706;151.094;2022-08-19T00:53:16;99462.90;;;15.68;40.31
37291;BME280;23175;-33.706;151.094;2022-08-19T00:55:51;99455.60;;;16.13;39.90
37291;BME280;23175;-33.706;151.094;2022-08-19T00:58:27;99450.75;;;14.94;40.76
37291;BME280;23175;-33.706;151.094;2022-08-19T01:00:58;99445.99;;;14.48;41.88
37291;BME280;23175;-33.706;151.094;2022-08-19T01:03:29;99440.52;;;15.11;41.15
37291;BME280;23175;-33.706;151.094;2022-08-19T01:05:59;99435.84;;;11.16;44.53
37291;BME280;23175;-33.706;151.094;2022-08-19T01:08:29;99429.71;;;12.47;43.27
37291;BME280;23175;-33.706;151.094;2022-08-19T01:11:00;99429.36;;;12.70;41.75
37291;BME280;23175;-33.706;151.094;2022-08-19T01:13:33;99429.04;;;12.70;43.32
37291;BME280;23175;-33.706;151.094;2022-08-19T01:16:07;99430.13;;;11.95;44.62
37291;BME280;23175;-33.706;151.094;2022-08-19T01:18:40;99421.55;;;15.34;38.88
37291;BME280;23175;-33.706;151.094;2022-08-19T01:21:16;99422.13;;;12.81;41.92
37291;BME280;23175;-33.706;151.094;2022-08-19T01:23:48;99420.09;;;13.59;39.64
37291;BME280;23175;-33.706;151.094;2022-08-19T01:26:20;99414.71;;;13.43;39.57
37291;BME280;23175;-33.706;151.094;2022-08-19T01:28:54;99410.52;;;13.44;38.97
37291;BME280;23175;-33.706;151.094;2022-08-19T01:31:27;99409.28;;;12.29;41.46
37291;BME280;23175;-33.706;151.094;2022-08-19T01:33:59;99405.12;;;11.51;41.45
37291;BME280;23175;-33.706;151.094;2022-08-19T01:36:32;99401.62;;;14.14;39.79
37291;BME280;23175;-33.706;151.094;2022-08-19T01:39:07;99401.51;;;13.33;40.81
37291;BME280;23175;-33.706;151.094;2022-08-19T01:41:38;99402.45;;;12.15;42.50
37291;BME280;23175;-33.706;151.094;2022-08-19T01:44:10;99393.45;;;13.37;38.54
37291;BME280;23175;-33.706;151.094;2022-08-19T01:46:41;99395.36;;;10.84;41.89
37291;BME280;23175;-33.706;151.094;2022-08-19T01:49:11;99390.03;;;13.51;39.00
37291;BME280;23175;-33.706;151.094;2022-08-19T01:51:42;99391.46;;;10.98;42.31
37291;BME280;23175;-33.706;151.094;2022-08-19T01:54:14;99388.40;;;14.40;38.11
37291;BME280;23175;-33.706;151.094;2022-08-19T01:56:44;99390.34;;;12.02;42.10
37291;BME280;23175;-33.706;151.094;2022-08-19T01:59:16;99388.96;;;14.57;38.52
37291;BME280;23175;-33.706;151.094;2022-08-19T02:01:48;99387.29;;;14.45;37.92
37291;BME280;23175;-33.706;151.094;2022-08-19T02:04:18;99386.29;;;13.48;38.93
37291;BME280;23175;-33.706;151.094;2022-08-19T02:06:48;99384.60;;;13.53;39.09
37291;BME280;23175;-33.706;151.094;2022-08-19T02:09:18;99381.19;;;13.27;39.52
37291;BME280;23175;-33.706;151.094;2022-08-19T02:11:49;99380.42;;;14.97;37.76
37291;BME280;23175;-33.706;151.094;2022-08-19T02:14:19;99372.98;;;13.35;38.86
37291;BME280;23175;-33.706;151.094;2022-08-19T02:16:49;99368.16;;;12.62;40.03
37291;BME280;23175;-33.706;151.094;2022-08-19T02:19:19;99363.86;;;12.38;40.82
37291;BME280;23175;-33.706;151.094;2022-08-19T02:21:50;99358.07;;;14.06;38.51
37291;BME280;23175;-33.706;151.094;2022-08-19T02:24:20;99353.32;;;14.15;37.82
37291;BME280;23175;-33.706;151.094;2022-08-19T02:26:50;99354.51;;;13.72;38.75
37291;BME280;23175;-33.706;151.094;2022-08-19T02:29:21;99356.40;;;14.84;36.97
37291;BME280;23175;-33.706;151.094;2022-08-19T02:31:50;99349.43;;;13.85;37.00
37291;BME280;23175;-33.706;151.094;2022-08-19T02:34:21;99346.27;;;14.58;35.97
37291;BME280;23175;-33.706;151.094;2022-08-19T02:36:51;99341.93;;;14.03;37.24
37291;BME280;23175;-33.706;151.094;2022-08-19T02:39:21;99341.45;;;14.02;37.29
37291;BME280;23175;-33.706;151.094;2022-08-19T02:41:52;99332.37;;;15.20;36.19
37291;BME280;23175;-33.706;151.094;2022-08-19T02:44:22;99324.02;;;13.41;38.33
37291;BME280;23175;-33.706;151.094;2022-08-19T02:46:52;99322.25;;;13.34;38.30
37291;BME280;23175;-33.706;151.094;2022-08-19T02:49:22;99315.05;;;16.91;33.80
37291;BME280;23175;-33.706;151.094;2022-08-19T02:51:52;99312.74;;;14.47;36.93
37291;BME280;23175;-33.706;151.094;2022-08-19T02:54:22;99313.81;;;14.46;36.98
37291;BME280;23175;-33.706;151.094;2022-08-19T02:56:53;99306.66;;;12.76;38.09
37291;BME280;23175;-33.706;151.094;2022-08-19T02:59:23;99301.83;;;13.58;36.97
37291;BME280;23175;-33.706;151.094;2022-08-19T03:01:53;99301.14;;;13.41;36.84
37291;BME280;23175;-33.706;151.094;2022-08-19T03:04:23;99299.00;;;13.52;37.69
37291;BME280;23175;-33.706;151.094;2022-08-19T03:06:54;99298.77;;;13.07;38.28
37291;BME280;23175;-33.706;151.094;2022-08-19T03:09:25;99302.93;;;14.77;36.48
37291;BME280;23175;-33.706;151.094;2022-08-19T03:11:55;99298.36;;;13.07;37.89
37291;BME280;23175;-33.706;151.094;2022-08-19T03:14:25;99312.04;;;14.29;37.58
37291;BME280;23175;-33.706;151.094;2022-08-19T03:16:55;99312.65;;;15.55;36.03
37291;BME280;23175;-33.706;151.094;2022-08-19T03:19:26;99314.36;;;13.96;37.31
37291;BME280;23175;-33.706;151.094;2022-08-19T03:21:56;99315.77;;;14.31;36.53
37291;BME280;23175;-33.706;151.094;2022-08-19T03:24:26;99314.12;;;13.68;37.63
37291;BME280;23175;-33.706;151.094;2022-08-19T03:26:56;99313.88;;;13.30;37.67
37291;BME280;23175;-33.706;151.094;2022-08-19T03:29:28;99313.68;;;14.97;36.72
37291;BME280;23175;-33.706;151.094;2022-08-19T03:31:59;99313.88;;;13.39;37.73
37291;BME280;23175;-33.706;151.094;2022-08-19T03:34:32;99314.49;;;15.32;35.38
37291;BME280;23175;-33.706;151.094;2022-08-19T03:37:06;99314.86;;;14.50;35.43
37291;BME280;23175;-33.706;151.094;2022-08-19T03:39:39;99314.49;;;12.99;37.60
37291;BME280;23175;-33.706;151.094;2022-08-19T03:42:11;99318.89;;;14.16;36.05
37291;BME280;23175;-33.706;151.094;2022-08-19T03:44:41;99318.31;;;14.53;35.20
37291;BME280;23175;-33.706;151.094;2022-08-19T03:47:11;99319.81;;;13.95;36.84
37291;BME280;23175;-33.706;151.094;2022-08-19T03:49:41;99322.57;;;15.51;34.79
37291;BME280;23175;-33.706;151.094;2022-08-19T03:52:11;99320.55;;;18.04;31.87
37291;BME280;23175;-33.706;151.094;2022-08-19T03:54:42;99325.56;;;13.85;36.32
37291;BME280;23175;-33.706;151.094;2022-08-19T03:57:12;99322.84;;;12.87;37.09
37291;BME280;23175;-33.706;151.094;2022-08-19T03:59:42;99323.67;;;16.11;34.51
37291;BME280;23175;-33.706;151.094;2022-08-19T04:02:13;99329.04;;;15.91;35.07
37291;BME280;23175;-33.706;151.094;2022-08-19T04:04:44;99330.26;;;13.52;37.51
37291;BME280;23175;-33.706;151.094;2022-08-19T04:07:15;99332.30;;;14.67;34.97
37291;BME280;23175;-33.706;151.094;2022-08-19T04:09:45;99330.04;;;14.82;34.13
37291;BME280;23175;-33.706;151.094;2022-08-19T04:12:15;99330.77;;;13.12;36.70
37291;BME280;23175;-33.706;151.094;2022-08-19T04:14:46;99324.74;;;12.15;37.09
37291;BME280;23175;-33.706;151.094;2022-08-19T04:17:16;99325.61;;;15.26;34.35
37291;BME280;23175;-33.706;151.094;2022-08-19T04:19:46;99319.41;;;13.12;35.75
37291;BME280;23175;-33.706;151.094;2022-08-19T04:22:16;99319.86;;;14.66;36.03
37291;BME280;23175;-33.706;151.094;2022-08-19T04:24:47;99319.21;;;13.55;35.56
37291;BME280;23175;-33.706;151.094;2022-08-19T04:27:17;99325.13;;;12.27;37.28
37291;BME280;23175;-33.706;151.094;2022-08-19T04:29:47;99322.77;;;12.49;37.08
37291;BME280;23175;-33.706;151.094;2022-08-19T04:32:18;99316.15;;;12.21;36.63
37291;BME280;23175;-33.706;151.094;2022-08-19T04:34:48;99323.36;;;13.66;34.90
37291;BME280;23175;-33.706;151.094;2022-08-19T04:37:18;99320.02;;;13.12;35.42
37291;BME280;23175;-33.706;151.094;2022-08-19T04:39:48;99327.53;;;14.54;34.17
37291;BME280;23175;-33.706;151.094;2022-08-19T04:42:20;99325.53;;;13.11;36.69
37291;BME280;23175;-33.706;151.094;2022-08-19T04:44:49;99324.77;;;12.61;34.68
37291;BME280;23175;-33.706;151.094;2022-08-19T04:47:20;99335.21;;;13.61;34.58
37291;BME280;23175;-33.706;151.094;2022-08-19T04:49:50;99337.06;;;14.15;34.72
37291;BME280;23175;-33.706;151.094;2022-08-19T04:52:20;99348.43;;;13.00;36.12
37291;BME280;23175;-33.706;151.094;2022-08-19T04:54:50;99370.00;;;14.02;36.00
37291;BME280;23175;-33.706;151.094;2022-08-19T04:57:21;99423.46;;;9.48;50.85
37291;BME280;23175;-33.706;151.094;2022-08-19T04:59:55;99418.00;;;9.77;57.43
37291;BME280;23175;-33.706;151.094;2022-08-19T05:02:25;99423.42;;;12.07;53.03
37291;BME280;23175;-33.706;151.094;2022-08-19T05:04:59;99421.55;;;12.55;52.47
37291;BME280;23175;-33.706;151.094;2022-08-19T05:07:30;99427.96;;;13.73;50.89
37291;BME280;23175;-33.706;151.094;2022-08-19T05:10:00;99424.74;;;12.46;54.10
37291;BME280;23175;-33.706;151.094;2022-08-19T05:12:30;99423.47;;;13.11;52.64
37291;BME280;23175;-33.706;151.094;2022-08-19T05:15:02;99419.08;;;12.99;53.04
37291;BME280;23175;-33.706;151.094;2022-08-19T05:17:32;99435.51;;;12.38;54.87
37291;BME280;23175;-33.706;151.094;2022-08-19T05:20:03;99449.64;;;14.25;51.63
37291;BME280;23175;-33.706;151.094;2022-08-19T05:22:34;99459.40;;;14.40;51.41
37291;BME280;23175;-33.706;151.094;2022-08-19T05:25:07;99467.40;;;13.83;52.68
37291;BME280;23175;-33.706;151.094;2022-08-19T05:27:38;99467.72;;;12.90;53.26
37291;BME280;23175;-33.706;151.094;2022-08-19T05:30:10;99476.08;;;11.41;56.43
37291;BME280;23175;-33.706;151.094;2022-08-19T05:32:41;99471.69;;;13.77;53.13
37291;BME280;23175;-33.706;151.094;2022-08-19T05:35:11;99467.88;;;15.31;50.01
37291;BME280;23175;-33.706;151.094;2022-08-19T05:37:42;99464.49;;;13.17;52.90
37291;BME280;23175;-33.706;151.094;2022-08-19T05:40:12;99469.81;;;14.77;50.96
37291;BME280;23175;-33.706;151.094;2022-08-19T05:42:43;99477.71;;;14.68;51.25
37291;BME280;23175;-33.706;151.094;2022-08-19T05:45:13;99482.62;;;15.63;48.68
37291;BME280;23175;-33.706;151.094;2022-08-19T05:47:43;99488.72;;;16.11;48.75
37291;BME280;23175;-33.706;151.094;2022-08-19T05:50:13;99491.27;;;15.26;48.52
37291;BME280;23175;-33.706;151.094;2022-08-19T05:52:43;99495.49;;;15.68;48.10
37291;BME280;23175;-33.706;151.094;2022-08-19T05:55:13;99494.17;;;15.12;48.40
37291;BME280;23175;-33.706;151.094;2022-08-19T05:57:43;99499.08;;;16.43;46.42
37291;BME280;23175;-33.706;151.094;2022-08-19T06:00:14;99504.43;;;16.37;46.91
37291;BME280;23175;-33.706;151.094;2022-08-19T06:02:45;99512.38;;;15.06;48.62
37291;BME280;23175;-33.706;151.094;2022-08-19T06:05:15;99519.23;;;15.00;48.54
37291;BME280;23175;-33.706;151.094;2022-08-19T06:07:45;99538.20;;;11.18;54.61
37291;BME280;23175;-33.706;151.094;2022-08-19T06:10:16;99536.98;;;11.83;54.97
37291;BME280;23175;-33.706;151.094;2022-08-19T06:12:46;99542.96;;;10.26;56.72
37291;BME280;23175;-33.706;151.094;2022-08-19T06:15:17;99548.26;;;11.64;56.22
37291;BME280;23175;-33.706;151.094;2022-08-19T06:17:48;99555.68;;;12.04;52.66
37291;BME280;23175;-33.706;151.094;2022-08-19T06:20:18;99563.03;;;10.31;52.97
37291;BME280;23175;-33.706;151.094;2022-08-19T06:22:50;99570.62;;;9.77;50.51
37291;BME280;23175;-33.706;151.094;2022-08-19T06:25:20;99577.24;;;9.75;52.16
37291;BME280;23175;-33.706;151.094;2022-08-19T06:27:50;99588.87;;;10.44;51.66
37291;BME280;23175;-33.706;151.094;2022-08-19T06:30:21;99600.42;;;9.20;54.90
37291;BME280;23175;-33.706;151.094;2022-08-19T06:32:51;99617.42;;;9.23;53.02
37291;BME280;23175;-33.706;151.094;2022-08-19T06:35:22;99632.56;;;8.50;53.49
37291;BME280;23175;-33.706;151.094;2022-08-19T06:37:52;99638.91;;;8.75;50.87
37291;BME280;23175;-33.706;151.094;2022-08-19T06:40:23;99635.54;;;9.74;50.18
37291;BME280;23175;-33.706;151.094;2022-08-19T06:42:53;99650.67;;;9.48;49.77
37291;BME280;23175;-33.706;151.094;2022-08-19T06:45:24;99658.99;;;9.03;49.90
37291;BME280;23175;-33.706;151.094;2022-08-19T06:47:54;99658.11;;;10.84;47.22
37291;BME280;23175;-33.706;151.094;2022-08-19T06:51:20;99662.18;;;9.43;48.25
37291;BME280;23175;-33.706;151.094;2022-08-19T06:53:53;99658.98;;;9.46;46.68
37291;BME280;23175;-33.706;151.094;2022-08-19T06:56:25;99666.23;;;10.24;44.72
37291;BME280;23175;-33.706;151.094;2022-08-19T06:58:56;99669.04;;;9.96;47.22
37291;BME280;23175;-33.706;151.094;2022-08-19T07:01:27;99676.71;;;9.43;46.19
37291;BME280;23175;-33.706;151.094;2022-08-19T07:03:57;99685.15;;;9.31;46.21
37291;BME280;23175;-33.706;151.094;2022-08-19T07:06:27;99697.40;;;9.09;47.56
37291;BME280;23175;-33.706;151.094;2022-08-19T07:08:58;99700.48;;;8.82;46.77
37291;BME280;23175;-33.706;151.094;2022-08-19T07:11:29;99709.17;;;10.47;44.51
37291;BME280;23175;-33.706;151.094;2022-08-19T07:13:58;99715.67;;;10.21;44.37
37291;BME280;23175;-33.706;151.094;2022-08-19T07:16:29;99728.57;;;9.37;44.82
37291;BME280;23175;-33.706;151.094;2022-08-19T07:19:00;99732.93;;;10.03;43.64
37291;BME280;23175;-33.706;151.094;2022-08-19T07:21:30;99739.69;;;9.53;42.93
37291;BME280;23175;-33.706;151.094;2022-08-19T07:24:01;99742.56;;;9.94;41.93
37291;BME280;23175;-33.706;151.094;2022-08-19T07:26:35;99758.33;;;8.34;43.26
37291;BME280;23175;-33.706;151.094;2022-08-19T07:29:07;99758.63;;;10.68;41.68
37291;BME280;23175;-33.706;151.094;2022-08-19T07:31:39;99757.96;;;8.59;42.38
37291;BME280;23175;-33.706;151.094;2022-08-19T07:34:11;99758.13;;;11.96;38.86
37291;BME280;23175;-33.706;151.094;2022-08-19T07:36:42;99765.30;;;12.31;38.86
37291;BME280;23175;-33.706;151.094;2022-08-19T07:39:16;99771.94;;;10.93;39.98
37291;BME280;23175;-33.706;151.094;2022-08-19T07:41:47;99770.26;;;10.62;39.58
37291;BME280;23175;-33.706;151.094;2022-08-19T07:44:18;99773.27;;;11.66;41.39
37291;BME280;23175;-33.706;151.094;2022-08-19T07:46:52;99770.32;;;11.72;41.36
37291;BME280;23175;-33.706;151.094;2022-08-19T07:49:23;99771.01;;;12.34;40.39
37291;BME280;23175;-33.706;151.094;2022-08-19T07:51:55;99778.24;;;10.93;40.98
37291;BME280;23175;-33.706;151.094;2022-08-19T07:54:28;99781.60;;;13.12;37.86
37291;BME280;23175;-33.706;151.094;2022-08-19T07:56:59;99790.04;;;11.57;39.33
37291;BME280;23175;-33.706;151.094;2022-08-19T07:59:29;99798.91;;;12.15;39.51
37291;BME280;23175;-33.706;151.094;2022-08-19T08:02:00;99812.53;;;10.67;43.03
37291;BME280;23175;-33.706;151.094;2022-08-19T08:04:32;99812.45;;;11.50;37.78
37291;BME280;23175;-33.706;151.094;2022-08-19T08:07:02;99815.12;;;11.76;36.81
37291;BME280;23175;-33.706;151.094;2022-08-19T08:09:37;99815.07;;;11.96;36.99
37291;BME280;23175;-33.706;151.094;2022-08-19T08:12:12;99822.04;;;12.25;37.94
37291;BME280;23175;-33.706;151.094;2022-08-19T08:14:45;99828.30;;;14.01;37.24
37291;BME280;23175;-33.706;151.094;2022-08-19T08:17:18;99833.29;;;13.65;36.63
37291;BME280;23175;-33.706;151.094;2022-08-19T08:19:48;99840.07;;;11.92;36.66
37291;BME280;23175;-33.706;151.094;2022-08-19T08:22:20;99847.71;;;13.53;36.25
37291;BME280;23175;-33.706;151.094;2022-08-19T08:24:50;99845.59;;;11.94;37.01
37291;BME280;23175;-33.706;151.094;2022-08-19T08:27:20;99849.30;;;13.55;36.66
37291;BME280;23175;-33.706;151.094;2022-08-19T08:29:51;99856.62;;;13.95;36.36
37291;BME280;23175;-33.706;151.094;2022-08-19T08:32:21;99864.19;;;14.07;36.71
37291;BME280;23175;-33.706;151.094;2022-08-19T08:34:52;99870.85;;;14.08;38.60
37291;BME280;23175;-33.706;151.094;2022-08-19T08:37:22;99875.96;;;13.04;39.83
37291;BME280;23175;-33.706;151.094;2022-08-19T08:39:52;99885.81;;;14.58;37.41
37291;BME280;23175;-33.706;151.094;2022-08-19T08:42:27;99890.48;;;14.41;37.78
37291;BME280;23175;-33.706;151.094;2022-08-19T08:45:02;99898.70;;;14.75;36.74
37291;BME280;23175;-33.706;151.094;2022-08-19T08:47:34;99904.09;;;14.93;37.94
37291;BME280;23175;-33.706;151.094;2022-08-19T08:50:09;99909.48;;;14.99;36.00
37291;BME280;23175;-33.706;151.094;2022-08-19T08:52:45;99913.63;;;14.62;34.74
37291;BME280;23175;-33.706;151.094;2022-08-19T08:55:17;99912.60;;;14.01;36.64
37291;BME280;23175;-33.706;151.094;2022-08-19T08:57:53;99913.70;;;14.60;35.85
37291;BME280;23175;-33.706;151.094;2022-08-19T09:00:29;99912.63;;;13.99;37.96
37291;BME280;23175;-33.706;151.094;2022-08-19T09:03:01;99913.68;;;14.60;36.84
37291;BME280;23175;-33.706;151.094;2022-08-19T09:05:41;99917.30;;;14.37;37.57
37291;BME280;23175;-33.706;151.094;2022-08-19T09:08:22;99922.07;;;13.52;39.26
37291;BME280;23175;-33.706;151.094;2022-08-19T09:10:57;99926.13;;;14.15;38.34
37291;BME280;23175;-33.706;151.094;2022-08-19T09:13:32;99929.71;;;14.25;38.22
37291;BME280;23175;-33.706;151.094;2022-08-19T09:16:09;99940.96;;;13.47;39.69
37291;BME280;23175;-33.706;151.094;2022-08-19T09:18:44;99950.39;;;13.23;39.96
37291;BME280;23175;-33.706;151.094;2022-08-19T09:21:14;99955.87;;;13.63;39.75
37291;BME280;23175;-33.706;151.094;2022-08-19T09:23:44;99962.25;;;14.07;39.33
37291;BME280;23175;-33.706;151.094;2022-08-19T09:26:16;99969.77;;;14.06;39.40
37291;BME280;23175;-33.706;151.094;2022-08-19T09:28:49;99969.50;;;13.04;39.43
37291;BME280;23175;-33.706;151.094;2022-08-19T09:31:22;99973.39;;;14.14;39.50
37291;BME280;23175;-33.706;151.094;2022-08-19T09:33:53;99976.14;;;13.95;40.00
37291;BME280;23175;-33.706;151.094;2022-08-19T09:36:25;99982.99;;;13.10;40.80
37291;BME280;23175;-33.706;151.094;2022-08-19T09:38:56;99984.21;;;12.67;40.17
37291;BME280;23175;-33.706;151.094;2022-08-19T09:41:27;99989.03;;;13.45;39.98
37291;BME280;23175;-33.706;151.094;2022-08-19T09:43:58;99993.16;;;13.67;39.43
37291;BME280;23175;-33.706;151.094;2022-08-19T09:46:29;99995.87;;;13.34;39.50
37291;BME280;23175;-33.706;151.094;2022-08-19T09:49:00;100001.95;;;13.57;39.88
37291;BME280;23175;-33.706;151.094;2022-08-19T09:51:30;100009.07;;;13.30;40.54
37291;BME280;23175;-33.706;151.094;2022-08-19T09:54:03;100014.54;;;13.15;40.84
37291;BME280;23175;-33.706;151.094;2022-08-19T09:56:33;100017.24;;;13.23;40.20
37291;BME280;23175;-33.706;151.094;2022-08-19T09:59:04;100015.32;;;12.96;40.66
37291;BME280;23175;-33.706;151.094;2022-08-19T10:01:34;100016.79;;;13.12;40.58
37291;BME280;23175;-33.706;151.094;2022-08-19T10:04:04;100020.04;;;13.05;40.23
37291;BME280;23175;-33.706;151.094;2022-08-19T10:06:35;100019.94;;;13.29;39.51
37291;BME280;23175;-33.706;151.094;2022-08-19T10:09:06;100022.78;;;13.04;39.90
37291;BME280;23175;-33.706;151.094;2022-08-19T10:11:39;100024.49;;;13.03;39.52
37291;BME280;23175;-33.706;151.094;2022-08-19T10:14:09;100030.59;;;12.83;39.64
37291;BME280;23175;-33.706;151.094;2022-08-19T10:16:40;100036.89;;;11.90;41.27
37291;BME280;23175;-33.706;151.094;2022-08-19T10:19:09;100036.47;;;12.61;40.14
37291;BME280;23175;-33.706;151.094;2022-08-19T10:21:40;100039.04;;;12.64;40.19
37291;BME280;23175;-33.706;151.094;2022-08-19T10:24:10;100043.33;;;12.36;41.01
37291;BME280;23175;-33.706;151.094;2022-08-19T10:26:41;100043.33;;;12.73;39.57
37291;BME280;23175;-33.706;151.094;2022-08-19T10:29:12;100045.25;;;12.59;39.69
37291;BME280;23175;-33.706;151.094;2022-08-19T10:31:42;100047.62;;;12.60;39.42
37291;BME280;23175;-33.706;151.094;2022-08-19T10:34:12;100051.19;;;12.47;39.74
37291;BME280;23175;-33.706;151.094;2022-08-19T10:36:42;100058.58;;;10.67;42.20
37291;BME280;23175;-33.706;151.094;2022-08-19T10:39:12;100062.54;;;12.55;39.49
37291;BME280;23175;-33.706;151.094;2022-08-19T10:41:44;100069.55;;;12.37;39.93
37291;BME280;23175;-33.706;151.094;2022-08-19T10:44:14;100073.14;;;12.71;39.43
37291;BME280;23175;-33.706;151.094;2022-08-19T10:46:45;100081.11;;;12.19;39.83
37291;BME280;23175;-33.706;151.094;2022-08-19T10:49:15;100083.92;;;11.03;41.27
37291;BME280;23175;-33.706;151.094;2022-08-19T10:51:46;100085.61;;;11.93;40.18
37291;BME280;23175;-33.706;151.094;2022-08-19T10:54:16;100089.30;;;12.60;39.88
37291;BME280;23175;-33.706;151.094;2022-08-19T10:56:46;100095.15;;;11.46;40.52
37291;BME280;23175;-33.706;151.094;2022-08-19T10:59:19;100097.73;;;11.94;40.62
37291;BME280;23175;-33.706;151.094;2022-08-19T11:01:50;100095.25;;;11.82;40.05
37291;BME280;23175;-33.706;151.094;2022-08-19T11:04:21;100100.75;;;11.90;41.25
37291;BME280;23175;-33.706;151.094;2022-08-19T11:06:51;100096.79;;;10.98;42.32
37291;BME280;23175;-33.706;151.094;2022-08-19T11:09:23;100099.14;;;11.82;40.74
37291;BME280;23175;-33.706;151.094;2022-08-19T11:11:54;100101.64;;;11.41;41.76
37291;BME280;23175;-33.706;151.094;2022-08-19T11:14:25;100104.86;;;11.63;41.42
37291;BME280;23175;-33.706;151.094;2022-08-19T11:16:55;100106.67;;;11.92;41.03
37291;BME280;23175;-33.706;151.094;2022-08-19T11:19:26;100107.99;;;12.20;40.03
37291;BME280;23175;-33.706;151.094;2022-08-19T11:21:57;100107.60;;;11.96;40.01
37291;BME280;23175;-33.706;151.094;2022-08-19T11:24:28;100104.45;;;12.07;40.74
37291;BME280;23175;-33.706;151.094;2022-08-19T11:27:03;100103.93;;;11.85;40.04
37291;BME280;23175;-33.706;151.094;2022-08-19T11:29:33;100103.23;;;12.14;39.86
37291;BME280;23175;-33.706;151.094;2022-08-19T11:32:07;100106.23;;;11.98;39.93
37291;BME280;23175;-33.706;151.094;2022-08-19T11:34:38;100107.42;;;12.06;39.71
37291;BME280;23175;-33.706;151.094;2022-08-19T11:37:10;100109.10;;;11.96;39.83
37291;BME280;23175;-33.706;151.094;2022-08-19T11:39:40;100106.64;;;11.84;39.88
37291;BME280;23175;-33.706;151.094;2022-08-19T11:42:12;100109.88;;;11.72;40.11
37291;BME280;23175;-33.706;151.094;2022-08-19T11:44:42;100114.20;;;12.37;39.21
37291;BME280;23175;-33.706;151.094;2022-08-19T11:47:13;100113.80;;;12.11;39.32
37291;BME280;23175;-33.706;151.094;2022-08-19T11:49:43;100117.97;;;11.82;39.69
37291;BME280;23175;-33.706;151.094;2022-08-19T11:52:14;100121.42;;;11.96;39.63
37291;BME280;23175;-33.706;151.094;2022-08-19T11:54:45;100122.71;;;11.56;39.54
37291;BME280;23175;-33.706;151.094;2022-08-19T11:57:15;100123.61;;;11.71;39.55
37291;BME280;23175;-33.706;151.094;2022-08-19T11:59:50;100124.10;;;11.14;39.70
37291;BME280;23175;-33.706;151.094;2022-08-19T12:02:20;100123.49;;;11.40;39.47
37291;BME280;23175;-33.706;151.094;2022-08-19T12:04:50;100123.36;;;11.40;40.42
37291;BME280;23175;-33.706;151.094;2022-08-19T12:07:21;100125.71;;;11.57;40.08
37291;BME280;23175;-33.706;151.094;2022-08-19T12:09:51;100127.66;;;11.67;39.85
37291;BME280;23175;-33.706;151.094;2022-08-19T12:12:21;100127.20;;;11.59;40.07
37291;BME280;23175;-33.706;151.094;2022-08-19T12:14:51;100124.33;;;11.46;39.90
37291;BME280;23175;-33.706;151.094;2022-08-19T12:17:20;100119.78;;;11.51;39.97
37291;BME280;23175;-33.706;151.094;2022-08-19T12:19:50;100118.16;;;11.09;39.91
37291;BME280;23175;-33.706;151.094;2022-08-19T12:22:20;100118.64;;;11.42;39.88
37291;BME280;23175;-33.706;151.094;2022-08-19T12:24:50;100118.29;;;11.31;39.73
37291;BME280;23175;-33.706;151.094;2022-08-19T12:27:20;100121.39;;;11.28;39.96
37291;BME280;23175;-33.706;151.094;2022-08-19T12:29:51;100125.53;;;11.53;39.71
37291;BME280;23175;-33.706;151.094;2022-08-19T12:32:21;100129.98;;;11.27;40.06
37291;BME280;23175;-33.706;151.094;2022-08-19T12:34:51;100130.74;;;11.07;39.58
37291;BME280;23175;-33.706;151.094;2022-08-19T12:37:21;100132.91;;;11.59;39.92
37291;BME280;23175;-33.706;151.094;2022-08-19T12:39:51;100132.84;;;10.97;39.98
37291;BME280;23175;-33.706;151.094;2022-08-19T12:42:22;100134.92;;;11.13;40.48
37291;BME280;23175;-33.706;151.094;2022-08-19T12:44:52;100138.00;;;10.96;39.97
37291;BME280;23175;-33.706;151.094;2022-08-19T12:47:23;100139.97;;;11.61;39.62